Impacts TAF Board INFO
FOR SITUATIONAL AWARENESS. NOT TO BE USED FOR FLIGHT PLANNING PURPOSES.
IDs:

KFLL - Ft Lauderdale-Hollyw, FL, US

Issued at 0541 UTC 20 Jan 2018
Updated at 0913 UTC 20 Jan 2018
Potential Impact None Slight Moderate High
Time<<21/10Z 21/11Z 21/12Z 21/13Z 21/14Z 21/15Z 21/16Z 21/17Z 21/18Z 21/19Z 21/20Z 21/21Z 21/22Z
Type PRVL PRVL
VIS >6 >6
CIG -- --
Cover SCT SCT
FltCat VFR VFR
WX -- --
WDir 50 50
WSpd 5 5
WGst -- --

Raw TAF
KFLL 200541Z 2006/2112 08003KT P6SM SCT035 SCT250
  FM201500 10010KT P6SM SCT035 BKN060
  FM202200 05005KT P6SM SCT035


METAR Board
Radar Display
Forecast Discussion

FOR SITUATIONAL AWARENESS. NOT TO BE USED FOR FLIGHT PLANNING PURPOSES.